createdAt,value
2019-01-18T00:01:31.850Z,2.10
2019-01-18T00:04:03.279Z,2.10
2019-01-18T00:06:34.629Z,2.10
2019-01-18T00:09:08.189Z,2.00
2019-01-18T00:11:40.375Z,2.00
2019-01-18T00:14:11.614Z,2.10
2019-01-18T00:16:42.865Z,2.10
2019-01-18T00:19:14.328Z,2.10
2019-01-18T00:21:46.617Z,2.10
2019-01-18T00:24:17.875Z,2.10
2019-01-18T00:26:49.291Z,2.10
2019-01-18T00:29:20.498Z,2.10
2019-01-18T00:31:51.748Z,2.10
2019-01-18T00:34:22.960Z,2.00
2019-01-18T00:36:54.203Z,2.10
2019-01-18T00:39:25.471Z,2.00
2019-01-18T00:41:56.675Z,2.00
2019-01-18T00:44:27.937Z,2.00
2019-01-18T00:47:00.373Z,2.00
2019-01-18T00:49:31.974Z,2.00
2019-01-18T00:52:03.224Z,1.90
2019-01-18T00:54:34.624Z,1.90
2019-01-18T00:57:05.906Z,1.90
2019-01-18T00:59:37.164Z,1.80
2019-01-18T01:02:08.413Z,1.80
2019-01-18T01:04:39.722Z,1.80
2019-01-18T01:07:10.980Z,1.70
2019-01-18T01:09:42.232Z,1.70
2019-01-18T01:12:13.977Z,1.60
2019-01-18T01:14:45.349Z,1.60
2019-01-18T01:17:16.631Z,1.50
2019-01-18T01:19:47.876Z,1.50
2019-01-18T01:22:19.249Z,1.40
2019-01-18T01:24:50.505Z,1.40
2019-01-18T01:27:21.769Z,1.40
2019-01-18T01:29:52.980Z,1.30
2019-01-18T01:32:24.229Z,1.30
2019-01-18T01:34:55.485Z,1.20
2019-01-18T01:37:26.739Z,1.20
2019-01-18T01:39:57.989Z,1.20
2019-01-18T01:42:29.246Z,1.10
2019-01-18T01:45:01.506Z,1.10
2019-01-18T01:47:32.913Z,1.10
2019-01-18T01:50:05.480Z,1.00
2019-01-18T01:52:36.724Z,1.00
2019-01-18T01:55:08.398Z,1.00
2019-01-18T01:57:39.744Z,1.00
2019-01-18T02:00:17.592Z,0.90
2019-01-18T02:02:48.975Z,0.90
2019-01-18T02:05:20.450Z,0.90
2019-01-18T02:07:51.797Z,0.90
2019-01-18T02:10:23.136Z,0.80
2019-01-18T02:12:54.500Z,0.80
2019-01-18T02:15:27.937Z,0.80
2019-01-18T02:17:59.188Z,0.80
2019-01-18T02:20:30.441Z,0.80
2019-01-18T02:23:01.678Z,0.80
2019-01-18T02:25:33.165Z,0.90
2019-01-18T02:28:04.485Z,0.90
2019-01-18T02:30:36.746Z,0.90
2019-01-18T02:33:08.177Z,0.90
2019-01-18T02:35:39.431Z,0.90
2019-01-18T02:38:10.696Z,0.90
2019-01-18T02:40:41.921Z,0.90
2019-01-18T02:43:13.197Z,1.00
2019-01-18T02:45:44.413Z,1.00
2019-01-18T02:48:15.717Z,1.00
2019-01-18T02:50:46.960Z,1.00
2019-01-18T02:53:18.243Z,1.00
2019-01-18T02:55:49.486Z,1.00
2019-01-18T02:58:20.705Z,1.00
2019-01-18T03:00:52.136Z,1.10
2019-01-18T03:03:23.356Z,1.10
2019-01-18T03:05:55.061Z,1.10
2019-01-18T03:08:26.304Z,1.10
2019-01-18T03:10:57.549Z,1.10
2019-01-18T03:13:29.205Z,1.10
2019-01-18T03:16:00.440Z,1.10
2019-01-18T03:18:32.906Z,1.10
2019-01-18T03:21:15.671Z,1.10
2019-01-18T03:23:57.979Z,1.10
2019-01-18T03:26:40.648Z,1.10
2019-01-18T03:29:24.677Z,1.10
2019-01-18T03:32:07.619Z,1.20
2019-01-18T03:34:50.734Z,1.10
2019-01-18T03:37:21.978Z,1.10
2019-01-18T03:39:53.224Z,1.20
2019-01-18T03:42:25.773Z,1.20
2019-01-18T03:44:57.146Z,1.20
2019-01-18T03:47:28.757Z,1.20
2019-01-18T03:50:01.078Z,1.20
2019-01-18T03:52:32.576Z,1.20
2019-01-18T03:55:03.996Z,1.20
2019-01-18T03:57:35.313Z,1.30
2019-01-18T04:00:09.405Z,1.30
2019-01-18T04:02:41.117Z,1.30
2019-01-18T04:05:12.824Z,1.40
2019-01-18T04:07:44.240Z,1.40
2019-01-18T04:10:17.891Z,1.40
2019-01-18T04:12:49.757Z,1.40
2019-01-18T04:15:22.111Z,1.40
2019-01-18T04:17:53.452Z,1.40
2019-01-18T04:20:24.998Z,1.40
2019-01-18T04:22:56.335Z,1.50
2019-01-18T04:25:29.844Z,1.50
2019-01-18T04:28:01.161Z,1.50
2019-01-18T04:30:33.596Z,1.50
2019-01-18T04:33:04.957Z,1.50
2019-01-18T04:35:36.229Z,1.50
2019-01-18T04:38:07.433Z,1.50
2019-01-18T04:40:38.927Z,1.50
2019-01-18T04:43:10.137Z,1.50
2019-01-18T04:45:42.554Z,1.50
2019-01-18T04:48:13.794Z,1.50
2019-01-18T04:50:44.996Z,1.50
2019-01-18T04:53:16.442Z,1.40
2019-01-18T04:55:47.645Z,1.40
2019-01-18T04:58:19.629Z,1.40
2019-01-18T05:00:50.937Z,1.40
2019-01-18T05:03:22.306Z,1.40
2019-01-18T05:05:53.662Z,1.30
2019-01-18T05:08:24.896Z,1.20
2019-01-18T05:10:56.162Z,1.20
2019-01-18T05:13:27.367Z,1.20
2019-01-18T05:15:58.780Z,1.20
2019-01-18T05:18:30.010Z,1.20
2019-01-18T05:21:01.366Z,1.20
2019-01-18T05:23:32.991Z,1.20
2019-01-18T05:26:04.410Z,1.30
2019-01-18T05:28:35.904Z,1.40
2019-01-18T05:31:07.165Z,1.30
2019-01-18T05:33:38.423Z,1.30
2019-01-18T05:36:09.690Z,1.30
2019-01-18T05:38:41.265Z,1.30
2019-01-18T05:41:12.537Z,1.30
2019-01-18T05:43:43.792Z,1.30
2019-01-18T05:46:15.016Z,1.30
2019-01-18T05:48:46.278Z,1.30
2019-01-18T05:51:17.522Z,1.30
2019-01-18T05:53:48.985Z,1.30
2019-01-18T05:56:20.414Z,1.30
2019-01-18T05:58:51.685Z,1.40
2019-01-18T06:01:23.014Z,1.40
2019-01-18T06:03:54.517Z,1.40
2019-01-18T06:06:25.783Z,1.40
2019-01-18T06:08:57.051Z,1.40
2019-01-18T06:11:28.458Z,1.40
2019-01-18T06:13:59.717Z,1.40
2019-01-18T06:16:30.963Z,1.40
2019-01-18T06:19:02.217Z,1.40
2019-01-18T06:21:33.442Z,1.40
2019-01-18T06:24:04.821Z,1.40
2019-01-18T06:26:36.072Z,1.40
2019-01-18T06:29:07.420Z,1.40
2019-01-18T06:31:38.819Z,1.30
2019-01-18T06:34:13.929Z,1.30
2019-01-18T06:36:45.164Z,1.30
2019-01-18T06:39:16.369Z,1.20
2019-01-18T06:41:50.941Z,1.20
2019-01-18T06:44:22.470Z,1.20
2019-01-18T06:46:54.245Z,1.20
2019-01-18T06:49:25.516Z,1.20
2019-01-18T06:51:56.764Z,1.20
2019-01-18T06:54:28.169Z,1.20
2019-01-18T06:56:59.452Z,1.20
2019-01-18T06:59:30.867Z,1.10
2019-01-18T07:02:04.722Z,1.10
2019-01-18T07:04:49.488Z,1.10
2019-01-18T07:07:42.547Z,1.10
2019-01-18T07:10:34.788Z,1.10
2019-01-18T07:13:21.405Z,1.10
2019-01-18T07:16:01.629Z,1.10
2019-01-18T07:19:00.555Z,1.10
2019-01-18T07:21:38.972Z,1.10
2019-01-18T07:24:22.702Z,1.10
2019-01-18T07:27:20.447Z,1.10
2019-01-18T07:29:59.413Z,1.10
2019-01-18T07:32:48.250Z,1.20
2019-01-18T07:35:22.990Z,1.20
2019-01-18T07:38:16.275Z,1.10
2019-01-18T07:41:03.975Z,1.10
2019-01-18T07:43:43.797Z,1.10
2019-01-18T07:46:35.847Z,1.10
2019-01-18T07:49:12.275Z,1.10
2019-01-18T07:51:53.711Z,1.10
2019-01-18T07:54:41.016Z,1.10
2019-01-18T07:57:21.529Z,1.10
2019-01-18T08:00:17.985Z,1.10
2019-01-18T08:02:57.240Z,1.00
2019-01-18T08:05:46.472Z,0.90
2019-01-18T08:08:33.860Z,0.80
2019-01-18T08:11:25.664Z,0.70
2019-01-18T08:14:11.636Z,0.70
2019-01-18T08:17:03.767Z,0.70
2019-01-18T08:19:58.290Z,0.60
2019-01-18T08:22:38.259Z,0.50
2019-01-18T08:25:19.102Z,0.50
2019-01-18T08:28:10.729Z,0.50
2019-01-18T08:30:50.358Z,0.50
2019-01-18T08:33:37.390Z,0.50
2019-01-18T08:36:21.358Z,0.60
2019-01-18T08:39:12.429Z,0.60
2019-01-18T08:42:02.974Z,0.60
2019-01-18T08:44:41.794Z,0.60
2019-01-18T08:47:33.735Z,0.60
2019-01-18T08:50:15.313Z,0.60
2019-01-18T08:53:04.790Z,0.60
2019-01-18T08:56:02.558Z,0.60
2019-01-18T08:58:51.008Z,0.60
2019-01-18T09:01:46.986Z,0.60
2019-01-18T09:04:51.458Z,0.70
2019-01-18T09:07:43.465Z,0.80
2019-01-18T09:10:30.303Z,0.90
2019-01-18T09:13:32.790Z,0.90
2019-01-18T09:16:14.796Z,0.90
2019-01-18T09:18:58.978Z,0.90
2019-01-18T09:21:52.704Z,0.80
2019-01-18T09:24:38.822Z,0.80
2019-01-18T09:27:30.655Z,0.80
2019-01-18T09:30:29.243Z,1.00
2019-01-18T09:33:02.804Z,1.10
2019-01-18T09:35:34.341Z,1.00
2019-01-18T09:38:07.604Z,1.00
2019-01-18T09:40:38.857Z,1.10
2019-01-18T09:43:11.118Z,1.00
2019-01-18T09:45:43.522Z,0.90
2019-01-18T09:48:15.880Z,0.90
2019-01-18T09:50:47.126Z,0.90
2019-01-18T09:53:18.585Z,0.90
2019-01-18T09:55:49.818Z,0.80
2019-01-18T09:58:21.110Z,0.80
2019-01-18T10:00:52.349Z,0.80
2019-01-18T10:03:23.585Z,0.80
2019-01-18T10:05:54.845Z,0.80
2019-01-18T10:08:26.057Z,0.90
2019-01-18T10:10:57.378Z,1.00
2019-01-18T10:13:28.736Z,1.10
2019-01-18T10:16:00.066Z,1.20
2019-01-18T10:18:31.330Z,1.30
2019-01-18T10:21:05.646Z,1.30
2019-01-18T10:23:37.916Z,1.40
2019-01-18T10:26:09.148Z,1.50
2019-01-18T10:28:43.329Z,1.50
2019-01-18T10:31:14.733Z,1.60
2019-01-18T10:33:47.165Z,1.70
2019-01-18T10:36:19.508Z,1.80
2019-01-18T10:38:50.776Z,1.90
2019-01-18T10:41:21.972Z,2.00
2019-01-18T10:43:53.227Z,2.10
2019-01-18T10:46:24.430Z,2.10
2019-01-18T10:48:57.952Z,2.20
2019-01-18T10:51:31.601Z,2.30
2019-01-18T10:54:02.889Z,2.40
2019-01-18T10:56:34.483Z,2.40
2019-01-18T10:59:05.941Z,2.50
2019-01-18T11:01:37.334Z,2.60
2019-01-18T11:04:08.603Z,2.60
2019-01-18T11:06:39.869Z,2.60
2019-01-18T11:09:11.123Z,2.60
2019-01-18T11:11:42.593Z,2.60
2019-01-18T11:14:13.842Z,2.70
2019-01-18T11:16:45.098Z,2.70
2019-01-18T11:19:16.366Z,2.80
2019-01-18T11:21:47.839Z,2.90
2019-01-18T11:24:19.029Z,2.90
2019-01-18T11:26:50.293Z,2.90
2019-01-18T11:29:21.541Z,3.00
2019-01-18T11:31:52.836Z,3.00
2019-01-18T11:34:24.061Z,3.00
2019-01-18T11:36:56.484Z,3.10
2019-01-18T11:39:28.252Z,3.10
2019-01-18T11:41:59.605Z,3.20
2019-01-18T11:44:30.857Z,3.10
2019-01-18T11:47:02.078Z,3.00
2019-01-18T11:49:33.339Z,2.90
2019-01-18T11:52:04.676Z,3.00
2019-01-18T11:54:37.026Z,3.20
2019-01-18T11:57:08.292Z,3.20
2019-01-18T11:59:39.586Z,3.10
2019-01-18T12:02:15.160Z,3.30
2019-01-18T12:04:43.956Z,3.30
2019-01-18T12:07:15.196Z,3.40
2019-01-18T12:09:46.501Z,3.50
2019-01-18T12:12:17.737Z,3.60
2019-01-18T12:14:49.106Z,3.60
2019-01-18T12:17:20.356Z,3.70
2019-01-18T12:19:51.629Z,3.70
2019-01-18T12:22:23.103Z,3.80
2019-01-18T12:24:54.347Z,3.80
2019-01-18T12:27:25.580Z,3.90
2019-01-18T12:29:56.793Z,3.90
2019-01-18T12:32:28.897Z,3.90
2019-01-18T12:35:00.184Z,3.90
2019-01-18T12:37:31.430Z,3.90
2019-01-18T12:40:02.681Z,4.00
2019-01-18T12:42:34.985Z,4.10
2019-01-18T12:45:08.492Z,4.20
2019-01-18T12:47:39.733Z,4.20
2019-01-18T12:50:20.480Z,4.20
2019-01-18T12:52:51.731Z,4.10
2019-01-18T12:55:22.989Z,4.20
2019-01-18T12:57:54.434Z,4.20
2019-01-18T13:00:26.036Z,4.20
2019-01-18T13:02:57.508Z,4.20
2019-01-18T13:05:41.413Z,4.20
2019-01-18T13:08:12.965Z,4.20
2019-01-18T13:10:45.106Z,4.10
2019-01-18T13:13:16.446Z,4.10
2019-01-18T13:16:01.749Z,4.00
2019-01-18T13:18:33.540Z,4.10
2019-01-18T13:21:04.825Z,4.10
2019-01-18T13:23:36.056Z,4.10
2019-01-18T13:26:07.340Z,4.10
2019-01-18T13:28:38.605Z,4.10
2019-01-18T13:31:09.861Z,4.00
2019-01-18T13:33:41.135Z,4.00
2019-01-18T13:36:15.519Z,3.90
2019-01-18T13:38:46.873Z,3.90
2019-01-18T13:41:18.378Z,3.90
2019-01-18T13:43:51.143Z,3.90
2019-01-18T13:46:22.910Z,3.90
2019-01-18T13:48:55.170Z,3.80
2019-01-18T13:51:26.446Z,3.90
2019-01-18T13:53:57.709Z,3.80
2019-01-18T13:56:29.120Z,3.80
2019-01-18T13:59:00.422Z,3.90
2019-01-18T14:01:31.681Z,3.90
2019-01-18T14:04:02.966Z,3.80
2019-01-18T14:06:34.217Z,3.80
2019-01-18T14:09:08.594Z,3.80
2019-01-18T14:11:39.870Z,3.80
2019-01-18T14:14:11.559Z,3.70
2019-01-18T14:16:42.815Z,3.70
2019-01-18T14:19:14.049Z,3.70
2019-01-18T14:21:45.462Z,3.60
2019-01-18T14:24:16.707Z,3.50
2019-01-18T14:26:47.970Z,3.50
2019-01-18T14:29:19.950Z,3.40
2019-01-18T14:31:52.201Z,3.30
2019-01-18T14:34:23.661Z,3.20
2019-01-18T14:36:54.869Z,3.20
2019-01-18T14:39:26.138Z,3.10
2019-01-18T14:41:57.345Z,3.00
2019-01-18T14:44:28.588Z,3.00
2019-01-18T14:46:59.917Z,2.90
2019-01-18T14:49:32.557Z,2.80
2019-01-18T14:52:03.898Z,2.70
2019-01-18T14:54:35.158Z,2.70
2019-01-18T14:57:06.577Z,2.60
2019-01-18T14:59:37.782Z,2.50
2019-01-18T15:02:09.451Z,2.40
2019-01-18T15:04:42.229Z,2.30
2019-01-18T15:07:13.476Z,2.20
2019-01-18T15:09:44.740Z,2.10
2019-01-18T15:12:16.005Z,2.10
2019-01-18T15:14:47.490Z,1.90
2019-01-18T15:17:18.742Z,1.80
2019-01-18T15:19:50.003Z,1.70
2019-01-18T15:22:21.221Z,1.70
2019-01-18T15:24:52.681Z,1.60
2019-01-18T15:27:23.925Z,1.40
2019-01-18T15:29:55.178Z,1.30
2019-01-18T15:32:26.472Z,1.30
2019-01-18T15:34:57.769Z,1.20
2019-01-18T15:37:29.034Z,1.20
2019-01-18T15:40:00.322Z,1.10
2019-01-18T15:42:31.573Z,1.10
2019-01-18T15:45:02.822Z,1.00
2019-01-18T15:47:34.065Z,0.90
2019-01-18T15:50:07.408Z,0.90
2019-01-18T15:52:38.829Z,0.80
2019-01-18T15:55:10.634Z,0.70
2019-01-18T15:57:42.261Z,0.60
2019-01-18T16:00:20.334Z,0.60
2019-01-18T16:02:51.853Z,0.50
2019-01-18T16:05:23.263Z,0.50
2019-01-18T16:07:54.568Z,0.50
2019-01-18T16:10:26.176Z,0.50
2019-01-18T16:12:57.986Z,0.40
2019-01-18T16:15:33.177Z,0.30
2019-01-18T16:18:07.514Z,0.30
2019-01-18T16:20:38.954Z,0.30
2019-01-18T16:23:11.685Z,0.20
2019-01-18T16:25:43.048Z,0.20
2019-01-18T16:28:14.456Z,0.10
2019-01-18T16:30:48.718Z,0.10
2019-01-18T16:33:23.473Z,0.00
2019-01-18T16:35:53.405Z,0.00
2019-01-18T16:38:24.671Z,-0.10
2019-01-18T16:40:55.949Z,-0.30
2019-01-18T16:43:36.523Z,-0.30
2019-01-18T16:46:07.921Z,-0.30
2019-01-18T16:48:39.648Z,-0.40
2019-01-18T16:51:10.950Z,-0.30
2019-01-18T16:53:43.238Z,-0.40
2019-01-18T16:56:15.456Z,-0.50
2019-01-18T16:58:47.093Z,-0.50
2019-01-18T17:01:18.371Z,-0.50
2019-01-18T17:03:49.679Z,-0.60
2019-01-18T17:06:20.985Z,-0.60
2019-01-18T17:08:52.401Z,-0.60
2019-01-18T17:11:23.678Z,-0.60
2019-01-18T17:13:55.039Z,-0.60
2019-01-18T17:16:26.458Z,-0.70
2019-01-18T17:18:58.162Z,-0.70
2019-01-18T17:21:29.921Z,-0.70
2019-01-18T17:24:01.203Z,-0.80
2019-01-18T17:26:32.604Z,-0.80
2019-01-18T17:29:04.015Z,-0.80
2019-01-18T17:31:35.397Z,-0.90
2019-01-18T17:34:06.798Z,-0.90
2019-01-18T17:36:53.054Z,-0.90
2019-01-18T17:39:49.637Z,-0.90
2019-01-18T17:42:38.840Z,-1.00
2019-01-18T17:45:31.725Z,-1.00
2019-01-18T17:48:33.471Z,-1.10
2019-01-18T17:51:59.436Z,-1.10
2019-01-18T17:54:42.427Z,-1.10
2019-01-18T17:57:30.442Z,-1.20
2019-01-18T18:00:40.060Z,-1.20
2019-01-18T18:03:50.862Z,-1.30
2019-01-18T18:07:10.952Z,-1.30
2019-01-18T18:10:31.873Z,-1.30
2019-01-18T18:13:50.138Z,-1.40
2019-01-18T18:16:49.721Z,-1.40
2019-01-18T18:19:51.459Z,-1.40
2019-01-18T18:23:06.772Z,-1.40
2019-01-18T18:26:19.937Z,-1.50
2019-01-18T18:29:22.811Z,-1.50
2019-01-18T18:32:22.408Z,-1.50
2019-01-18T18:35:40.457Z,-1.60
2019-01-18T18:39:04.788Z,-1.60
2019-01-18T18:42:09.212Z,-1.60
2019-01-18T18:45:39.273Z,-1.60
2019-01-18T18:48:22.794Z,-1.60
2019-01-18T18:51:56.260Z,-1.60
2019-01-18T18:55:07.184Z,-1.70
2019-01-18T18:58:34.875Z,-1.70
2019-01-18T19:01:49.749Z,-1.70
2019-01-18T19:04:41.565Z,-1.70
2019-01-18T19:07:58.276Z,-1.70
2019-01-18T19:11:07.518Z,-1.70
2019-01-18T19:14:21.203Z,-1.70
2019-01-18T19:17:30.686Z,-1.80
2019-01-18T19:20:47.673Z,-1.80
2019-01-18T19:23:47.028Z,-1.80
2019-01-18T19:26:57.853Z,-1.80
2019-01-18T19:30:12.209Z,-1.80
2019-01-18T19:33:42.888Z,-1.80
2019-01-18T19:36:58.234Z,-1.80
2019-01-18T19:40:17.080Z,-1.80
2019-01-18T19:43:11.771Z,-1.90
2019-01-18T19:45:51.077Z,-1.90
2019-01-18T19:49:15.040Z,-1.90
2019-01-18T19:52:25.007Z,-1.90
2019-01-18T19:55:42.090Z,-1.90
2019-01-18T19:58:52.923Z,-1.90
2019-01-18T20:01:56.931Z,-1.90
2019-01-18T20:05:13.522Z,-1.90
2019-01-18T20:08:34.161Z,-1.90
2019-01-18T20:11:28.169Z,-1.90
2019-01-18T20:14:30.429Z,-1.90
2019-01-18T20:17:24.176Z,-2.00
2019-01-18T20:20:24.423Z,-2.00
2019-01-18T20:23:45.644Z,-2.00
2019-01-18T20:26:52.641Z,-1.90
2019-01-18T20:29:55.453Z,-2.00
2019-01-18T20:33:03.944Z,-2.00
2019-01-18T20:35:44.929Z,-2.00
2019-01-18T20:38:58.830Z,-2.00
2019-01-18T20:42:19.585Z,-2.00
2019-01-18T20:45:08.125Z,-2.10
2019-01-18T20:48:01.796Z,-2.10
2019-01-18T20:51:25.425Z,-2.10
2019-01-18T20:54:38.167Z,-2.10
2019-01-18T20:57:28.926Z,-2.10
2019-01-18T21:00:19.313Z,-2.10
2019-01-18T21:03:22.307Z,-2.20
2019-01-18T21:06:16.310Z,-2.20
2019-01-18T21:09:24.010Z,-2.20
2019-01-18T21:12:15.382Z,-2.20
2019-01-18T21:15:24.696Z,-2.20
2019-01-18T21:18:15.474Z,-2.20
2019-01-18T21:21:26.317Z,-2.30
2019-01-18T21:24:38.498Z,-2.30
2019-01-18T21:27:37.453Z,-2.30
2019-01-18T21:31:01.685Z,-2.30
2019-01-18T21:33:57.655Z,-2.30
2019-01-18T21:37:03.927Z,-2.30
2019-01-18T21:39:49.320Z,-2.30
2019-01-18T21:42:55.921Z,-2.30
2019-01-18T21:45:54.558Z,-2.30
2019-01-18T21:48:57.441Z,-2.40
2019-01-18T21:51:36.387Z,-2.30
2019-01-18T21:54:43.952Z,-2.40
2019-01-18T21:57:47.372Z,-2.40
2019-01-18T22:00:54.960Z,-2.40
2019-01-18T22:04:06.844Z,-2.40
2019-01-18T22:07:09.909Z,-2.40
2019-01-18T22:10:08.886Z,-2.40
2019-01-18T22:13:16.617Z,-2.50
2019-01-18T22:16:03.926Z,-2.50
2019-01-18T22:19:04.792Z,-2.50
2019-01-18T22:21:55.101Z,-2.50
2019-01-18T22:25:21.932Z,-2.50
2019-01-18T22:28:25.073Z,-2.50
2019-01-18T22:31:19.065Z,-2.50
2019-01-18T22:34:09.944Z,-2.50
2019-01-18T22:37:12.569Z,-2.60
2019-01-18T22:40:33.453Z,-2.60
2019-01-18T22:43:41.904Z,-2.60
2019-01-18T22:46:54.168Z,-2.50
2019-01-18T22:49:37.159Z,-2.50
2019-01-18T22:52:54.232Z,-2.60
2019-01-18T22:55:54.992Z,-2.60
2019-01-18T22:59:28.201Z,-2.60
2019-01-18T23:02:49.651Z,-2.60
2019-01-18T23:05:50.961Z,-2.60
2019-01-18T23:09:21.121Z,-2.60
2019-01-18T23:12:34.692Z,-2.60
2019-01-18T23:15:39.397Z,-2.60
2019-01-18T23:19:00.526Z,-2.60
2019-01-18T23:21:53.264Z,-2.60
2019-01-18T23:24:33.375Z,-2.60
2019-01-18T23:27:53.877Z,-2.70
2019-01-18T23:30:40.016Z,-2.70
2019-01-18T23:33:36.553Z,-2.70
2019-01-18T23:36:51.069Z,-2.70
2019-01-18T23:40:09.414Z,-2.70
2019-01-18T23:43:13.708Z,-2.70
2019-01-18T23:45:52.933Z,-2.70
2019-01-18T23:48:51.774Z,-2.80
2019-01-18T23:52:02.078Z,-2.80
2019-01-18T23:55:23.412Z,-2.80
2019-01-18T23:58:32.696Z,-2.80
